createdAt,value
2019-01-26T00:01:51.837Z,68.30
2019-01-26T00:04:25.005Z,74.33
2019-01-26T00:06:55.872Z,78.27
2019-01-26T00:09:24.304Z,69.10
2019-01-26T00:12:01.552Z,69.53
2019-01-26T00:14:30.135Z,60.60
2019-01-26T00:16:58.521Z,69.37
2019-01-26T00:19:27.853Z,63.67
2019-01-26T00:22:00.812Z,62.73
2019-01-26T00:24:33.617Z,65.87
2019-01-26T00:27:08.341Z,57.93
2019-01-26T00:29:39.517Z,66.57
2019-01-26T00:32:12.909Z,67.10
2019-01-26T00:34:46.812Z,69.47
2019-01-26T00:37:15.244Z,69.20
2019-01-26T00:39:46.609Z,66.83
2019-01-26T00:42:16.538Z,67.57
2019-01-26T00:44:45.174Z,61.40
2019-01-26T00:47:13.576Z,67.07
2019-01-26T00:49:41.973Z,61.20
2019-01-26T00:52:11.181Z,64.47
2019-01-26T00:54:41.449Z,56.83
2019-01-26T00:57:10.075Z,54.37
2019-01-26T00:59:41.477Z,59.43
2019-01-26T01:02:09.861Z,66.67
2019-01-26T01:04:40.088Z,61.40
2019-01-26T01:07:10.941Z,62.43
2019-01-26T01:09:42.055Z,65.23
2019-01-26T01:12:10.470Z,54.50
2019-01-26T01:14:40.536Z,50.60
2019-01-26T01:17:20.907Z,50.90
2019-01-26T01:19:52.450Z,56.90
2019-01-26T01:22:32.422Z,59.97
2019-01-26T01:25:07.050Z,56.53
2019-01-26T01:27:35.695Z,53.67
2019-01-26T01:30:10.096Z,48.73
2019-01-26T01:32:44.245Z,49.77
2019-01-26T01:35:12.656Z,47.37
2019-01-26T01:37:41.059Z,51.13
2019-01-26T01:40:12.525Z,51.33
2019-01-26T01:42:41.693Z,42.73
2019-01-26T01:45:13.168Z,44.63
2019-01-26T01:47:43.248Z,48.77
2019-01-26T01:50:13.015Z,48.90
2019-01-26T01:52:53.001Z,43.20
2019-01-26T01:55:23.076Z,42.47
2019-01-26T01:57:56.001Z,44.10
2019-01-26T02:00:25.651Z,38.67
2019-01-26T02:03:01.645Z,40.97
2019-01-26T02:05:30.033Z,43.07
2019-01-26T02:08:01.305Z,38.43
2019-01-26T02:10:35.445Z,35.17
2019-01-26T02:13:12.306Z,34.37
2019-01-26T02:15:40.704Z,29.37
2019-01-26T02:18:09.157Z,34.57
2019-01-26T02:20:38.385Z,32.07
2019-01-26T02:23:19.004Z,32.37
2019-01-26T02:25:50.185Z,34.33
2019-01-26T02:28:21.448Z,30.77
2019-01-26T02:30:51.497Z,33.40
2019-01-26T02:33:23.134Z,30.53
2019-01-26T02:35:53.213Z,30.70
2019-01-26T02:38:21.618Z,30.60
2019-01-26T02:40:52.301Z,30.40
2019-01-26T02:43:20.968Z,30.33
2019-01-26T02:45:49.445Z,31.47
2019-01-26T02:48:17.848Z,31.47
2019-01-26T02:50:50.925Z,35.20
2019-01-26T02:53:20.929Z,29.43
2019-01-26T02:55:49.316Z,27.70
2019-01-26T02:58:34.171Z,33.10
2019-01-26T03:01:05.855Z,29.57
2019-01-26T03:03:35.562Z,30.90
2019-01-26T03:06:07.407Z,27.73
2019-01-26T03:08:36.033Z,32.27
2019-01-26T03:11:07.205Z,26.17
2019-01-26T03:13:38.981Z,29.87
2019-01-26T03:16:07.417Z,26.43
2019-01-26T03:18:35.819Z,29.57
2019-01-26T03:21:17.433Z,30.63
2019-01-26T03:23:54.357Z,27.93
2019-01-26T03:26:23.848Z,30.43
2019-01-26T03:29:01.400Z,29.60
2019-01-26T03:31:31.438Z,31.13
2019-01-26T03:34:01.483Z,29.50
2019-01-26T03:36:37.719Z,30.73
2019-01-26T03:39:10.075Z,30.07
2019-01-26T03:41:47.341Z,29.17
2019-01-26T03:44:15.809Z,26.80
2019-01-26T03:46:50.256Z,32.03
2019-01-26T03:49:27.526Z,31.17
2019-01-26T03:51:57.213Z,25.47
2019-01-26T03:54:28.595Z,26.77
2019-01-26T03:56:58.852Z,26.67
2019-01-26T03:59:30.255Z,27.10
2019-01-26T04:01:58.649Z,26.30
2019-01-26T04:04:30.133Z,29.47
2019-01-26T04:07:06.364Z,27.93
2019-01-26T04:09:37.693Z,23.07
2019-01-26T04:12:06.083Z,25.80
2019-01-26T04:14:43.634Z,27.57
2019-01-26T04:17:26.470Z,25.67
2019-01-26T04:19:54.875Z,24.17
2019-01-26T04:22:26.398Z,29.03
2019-01-26T04:24:54.786Z,21.23
2019-01-26T04:27:29.233Z,21.67
2019-01-26T04:29:59.277Z,19.77
2019-01-26T04:32:30.612Z,21.80
2019-01-26T04:35:11.237Z,17.30
2019-01-26T04:37:39.629Z,20.37
2019-01-26T04:40:16.568Z,19.03
2019-01-26T04:42:47.670Z,20.03
2019-01-26T04:45:23.396Z,21.27
2019-01-26T04:47:55.846Z,20.00
2019-01-26T04:50:24.230Z,19.30
2019-01-26T04:52:52.628Z,18.07
2019-01-26T04:55:25.623Z,20.10
2019-01-26T04:57:56.939Z,23.03
2019-01-26T05:00:30.982Z,17.83
2019-01-26T05:02:59.620Z,18.57
2019-01-26T05:05:32.570Z,20.03
2019-01-26T05:08:01.170Z,18.80
2019-01-26T05:10:35.617Z,19.77
2019-01-26T05:13:08.570Z,17.80
2019-01-26T05:15:38.611Z,22.57
2019-01-26T05:18:09.933Z,18.50
2019-01-26T05:20:43.802Z,20.87
2019-01-26T05:23:14.790Z,19.97
2019-01-26T05:25:43.177Z,22.43
2019-01-26T05:28:20.517Z,20.10
2019-01-26T05:30:48.918Z,26.37
2019-01-26T05:33:17.302Z,24.30
2019-01-26T05:35:47.337Z,19.93
2019-01-26T05:38:21.415Z,27.20
2019-01-26T05:40:49.806Z,20.63
2019-01-26T05:43:19.213Z,23.70
2019-01-26T05:45:50.225Z,20.97
2019-01-26T05:48:24.581Z,21.07
2019-01-26T05:51:02.048Z,22.67
2019-01-26T05:53:38.590Z,22.07
2019-01-26T05:56:09.898Z,21.27
2019-01-26T05:58:38.476Z,22.50
2019-01-26T06:01:14.187Z,23.90
2019-01-26T06:03:45.322Z,22.43
2019-01-26T06:06:16.618Z,20.93
2019-01-26T06:08:46.662Z,21.60
2019-01-26T06:11:18.226Z,23.90
2019-01-26T06:13:48.410Z,21.13
2019-01-26T06:16:20.762Z,21.50
2019-01-26T06:18:52.159Z,21.70
2019-01-26T06:21:24.887Z,23.00
2019-01-26T06:23:53.274Z,20.80
2019-01-26T06:26:21.665Z,23.53
2019-01-26T06:28:56.512Z,24.70
2019-01-26T06:31:27.658Z,26.43
2019-01-26T06:34:06.920Z,23.00
2019-01-26T06:36:36.956Z,27.47
2019-01-26T06:39:14.407Z,22.27
2019-01-26T06:41:45.939Z,25.20
2019-01-26T06:44:17.095Z,26.17
2019-01-26T06:46:46.817Z,24.03
2019-01-26T06:49:15.191Z,26.63
2019-01-26T06:51:47.649Z,22.63
2019-01-26T06:54:17.582Z,27.27
2019-01-26T06:56:46.013Z,22.80
2019-01-26T06:59:21.654Z,24.20
2019-01-26T07:01:57.093Z,28.03
2019-01-26T07:04:32.844Z,30.33
2019-01-26T07:07:09.698Z,25.73
2019-01-26T07:09:40.852Z,24.37
2019-01-26T07:12:14.033Z,25.90
2019-01-26T07:14:42.416Z,22.47
2019-01-26T07:17:13.865Z,26.50
2019-01-26T07:19:47.661Z,26.67
2019-01-26T07:22:16.008Z,25.57
2019-01-26T07:24:44.405Z,27.27
2019-01-26T07:27:20.341Z,24.30
2019-01-26T07:29:51.652Z,23.43
2019-01-26T07:32:22.929Z,26.70
2019-01-26T07:34:51.558Z,24.87
2019-01-26T07:37:21.190Z,28.37
2019-01-26T07:39:54.224Z,22.47
2019-01-26T07:42:22.850Z,25.90
2019-01-26T07:45:00.446Z,23.03
2019-01-26T07:47:31.134Z,23.33
2019-01-26T07:50:00.818Z,27.33
2019-01-26T07:52:29.192Z,26.07
2019-01-26T07:54:57.592Z,26.13
2019-01-26T07:57:29.193Z,25.33
2019-01-26T07:59:57.595Z,23.37
2019-01-26T08:02:25.983Z,21.73
2019-01-26T08:04:59.828Z,26.23
2019-01-26T08:07:28.232Z,21.27
2019-01-26T08:09:56.849Z,23.07
2019-01-26T08:12:28.161Z,19.83
2019-01-26T08:14:56.548Z,25.10
2019-01-26T08:17:27.657Z,20.30
2019-01-26T08:19:58.873Z,21.33
2019-01-26T08:22:30.046Z,22.57
2019-01-26T08:24:58.460Z,20.20
2019-01-26T08:27:32.731Z,22.73
2019-01-26T08:30:01.118Z,20.27
2019-01-26T08:32:36.465Z,22.43
2019-01-26T08:35:07.654Z,20.43
2019-01-26T08:37:39.159Z,21.43
2019-01-26T08:40:10.638Z,22.13
2019-01-26T08:42:41.735Z,19.30
2019-01-26T08:45:17.911Z,20.10
2019-01-26T08:47:44.463Z,23.53
2019-01-26T08:50:16.065Z,19.80
2019-01-26T08:52:46.251Z,21.03
2019-01-26T08:55:21.889Z,23.30
2019-01-26T08:57:50.345Z,21.60
2019-01-26T09:00:25.837Z,22.43
2019-01-26T09:02:56.524Z,22.73
2019-01-26T09:05:36.577Z,19.57
2019-01-26T09:08:05.632Z,20.17
2019-01-26T09:10:34.019Z,17.10
2019-01-26T09:13:02.712Z,18.10
2019-01-26T09:15:32.740Z,18.20
2019-01-26T09:18:04.025Z,19.73
2019-01-26T09:20:32.504Z,18.07
2019-01-26T09:23:06.454Z,17.80
2019-01-26T09:26:00.943Z,14.73
2019-01-26T09:28:29.396Z,14.50
2019-01-26T09:31:00.816Z,15.27
2019-01-26T09:33:29.225Z,16.43
2019-01-26T09:36:04.378Z,12.60
2019-01-26T09:38:33.932Z,11.67
2019-01-26T09:41:02.541Z,10.77
2019-01-26T09:43:30.993Z,12.50
2019-01-26T09:45:59.382Z,14.33
2019-01-26T09:48:36.613Z,11.67
2019-01-26T09:51:08.056Z,12.00
2019-01-26T09:53:39.133Z,12.73
2019-01-26T09:56:07.527Z,11.17
2019-01-26T09:58:42.264Z,11.73
2019-01-26T10:01:13.385Z,11.57
2019-01-26T10:03:49.527Z,11.67
2019-01-26T10:06:24.512Z,13.87
2019-01-26T10:08:55.709Z,11.07
2019-01-26T10:11:24.160Z,12.13
2019-01-26T10:14:01.033Z,9.53
2019-01-26T10:16:31.312Z,13.33
2019-01-26T10:18:59.698Z,14.33
2019-01-26T10:21:37.021Z,11.27
2019-01-26T10:24:05.409Z,15.13
2019-01-26T10:26:33.796Z,11.03
2019-01-26T10:29:02.184Z,13.43
2019-01-26T10:31:30.813Z,12.90
2019-01-26T10:34:07.969Z,11.33
2019-01-26T10:36:38.001Z,11.93
2019-01-26T10:39:10.120Z,16.07
2019-01-26T10:41:42.241Z,9.80
2019-01-26T10:44:18.109Z,10.63
2019-01-26T10:46:49.175Z,12.77
2019-01-26T10:49:17.553Z,11.67
2019-01-26T10:51:50.465Z,11.47
2019-01-26T10:54:20.493Z,11.87
2019-01-26T10:56:50.518Z,16.03
2019-01-26T10:59:26.498Z,12.97
2019-01-26T11:02:00.888Z,14.07
2019-01-26T11:04:32.178Z,14.90
2019-01-26T11:07:02.977Z,16.23
2019-01-26T11:09:34.105Z,13.37
2019-01-26T11:12:02.497Z,11.20
2019-01-26T11:14:30.881Z,13.00
2019-01-26T11:16:59.269Z,12.80
2019-01-26T11:19:36.546Z,12.40
2019-01-26T11:22:05.696Z,12.97
2019-01-26T11:24:37.096Z,12.47
2019-01-26T11:27:08.225Z,13.23
2019-01-26T11:29:41.362Z,12.67
2019-01-26T11:32:15.521Z,12.33
2019-01-26T11:34:43.910Z,13.33
2019-01-26T11:37:15.295Z,14.50
2019-01-26T11:39:45.361Z,15.47
2019-01-26T11:42:14.753Z,12.87
2019-01-26T11:44:44.977Z,14.10
2019-01-26T11:47:14.942Z,13.27
2019-01-26T11:49:44.958Z,13.47
2019-01-26T11:52:16.372Z,14.57
2019-01-26T11:54:49.305Z,12.17
2019-01-26T11:57:19.337Z,12.87
2019-01-26T12:00:13.016Z,13.63
2019-01-26T12:02:43.153Z,13.27
2019-01-26T12:05:13.165Z,11.23
2019-01-26T12:07:41.560Z,12.23
2019-01-26T12:10:16.052Z,12.83
2019-01-26T12:12:47.452Z,12.10
2019-01-26T12:15:18.787Z,11.70
2019-01-26T12:17:48.424Z,11.53
2019-01-26T12:20:18.188Z,10.97
2019-01-26T12:22:46.572Z,14.17
2019-01-26T12:25:17.700Z,14.80
2019-01-26T12:27:52.112Z,12.47
2019-01-26T12:30:20.496Z,10.83
2019-01-26T12:32:49.853Z,10.37
2019-01-26T12:35:18.251Z,6.10
2019-01-26T12:37:46.766Z,8.50
2019-01-26T12:40:18.717Z,7.07
2019-01-26T12:42:48.776Z,5.50
2019-01-26T12:45:22.131Z,7.13
2019-01-26T12:47:50.518Z,6.83
2019-01-26T12:50:21.945Z,5.33
2019-01-26T12:52:59.205Z,4.70
2019-01-26T12:55:47.232Z,5.00
2019-01-26T12:58:16.380Z,5.60
2019-01-26T13:00:44.829Z,5.50
2019-01-26T13:03:13.259Z,5.07
2019-01-26T13:05:41.669Z,6.17
2019-01-26T13:08:12.396Z,4.67
2019-01-26T13:10:44.425Z,5.37
2019-01-26T13:13:12.984Z,5.83
2019-01-26T13:15:41.377Z,6.17
2019-01-26T13:18:09.840Z,5.47
2019-01-26T13:20:38.252Z,5.00
2019-01-26T13:23:09.889Z,7.40
2019-01-26T13:25:39.207Z,8.87
2019-01-26T13:28:08.339Z,7.63
2019-01-26T13:30:36.749Z,6.03
2019-01-26T13:33:07.976Z,8.53
2019-01-26T13:35:36.390Z,8.30
2019-01-26T13:38:05.529Z,7.83
2019-01-26T13:40:36.557Z,8.90
2019-01-26T13:43:05.921Z,8.83
2019-01-26T13:45:35.838Z,8.77
2019-01-26T13:48:04.988Z,7.23
2019-01-26T13:50:33.365Z,8.33
2019-01-26T13:53:04.668Z,9.47
2019-01-26T13:55:33.044Z,9.47
2019-01-26T13:58:04.245Z,10.97
2019-01-26T14:00:35.729Z,8.57
2019-01-26T14:03:05.154Z,10.43
2019-01-26T14:05:36.944Z,8.30
2019-01-26T14:08:08.333Z,8.77
2019-01-26T14:10:38.433Z,8.13
2019-01-26T14:13:06.809Z,9.73
2019-01-26T14:15:38.104Z,8.13
2019-01-26T14:18:07.482Z,7.13
2019-01-26T14:20:41.662Z,8.17
2019-01-26T14:23:13.763Z,7.03
2019-01-26T14:25:45.648Z,7.13
2019-01-26T14:28:14.342Z,7.93
2019-01-26T14:30:46.133Z,7.90
2019-01-26T14:33:14.566Z,8.70
2019-01-26T14:35:43.928Z,5.97
2019-01-26T14:38:12.419Z,8.03
2019-01-26T14:40:40.797Z,6.60
2019-01-26T14:43:12.141Z,8.27
2019-01-26T14:45:40.544Z,6.77
2019-01-26T14:48:09.161Z,7.83
2019-01-26T14:50:43.242Z,7.30
2019-01-26T14:53:14.688Z,6.87
2019-01-26T14:55:47.877Z,6.33
2019-01-26T14:58:16.256Z,7.23
2019-01-26T15:00:50.095Z,6.27
2019-01-26T15:03:18.521Z,6.63
2019-01-26T15:05:46.956Z,7.53
2019-01-26T15:08:15.400Z,6.60
2019-01-26T15:10:43.772Z,7.37
2019-01-26T15:13:17.736Z,6.10
2019-01-26T15:15:46.113Z,5.60
2019-01-26T15:18:14.518Z,7.73
2019-01-26T15:20:46.068Z,6.97
2019-01-26T15:23:17.465Z,7.00
2019-01-26T15:25:46.635Z,6.43
2019-01-26T15:28:15.012Z,8.13
2019-01-26T15:30:43.396Z,6.20
2019-01-26T15:33:13.506Z,8.30
2019-01-26T15:35:44.926Z,8.30
2019-01-26T15:38:13.313Z,10.93
2019-01-26T15:40:41.704Z,8.27
2019-01-26T15:43:11.816Z,8.77
2019-01-26T15:45:43.626Z,9.07
2019-01-26T15:48:19.257Z,6.87
2019-01-26T15:50:47.641Z,8.43
2019-01-26T15:53:21.572Z,7.70
2019-01-26T15:55:52.890Z,7.60
2019-01-26T15:58:21.276Z,6.73
2019-01-26T16:00:52.269Z,7.80
2019-01-26T16:03:20.661Z,7.13
2019-01-26T16:05:50.789Z,8.50
2019-01-26T16:08:24.548Z,7.47
2019-01-26T16:10:52.932Z,7.33
2019-01-26T16:13:24.500Z,7.77
2019-01-26T16:15:52.964Z,8.73
2019-01-26T16:18:22.908Z,8.20
2019-01-26T16:20:57.214Z,8.60
2019-01-26T16:23:28.745Z,8.50
2019-01-26T16:25:58.666Z,7.37
2019-01-26T16:28:27.037Z,6.30
2019-01-26T16:30:55.424Z,9.00
2019-01-26T16:33:35.727Z,6.57
2019-01-26T16:35:54.169Z,8.20
2019-01-26T16:38:22.561Z,7.73
2019-01-26T16:40:50.943Z,7.33
2019-01-26T16:43:21.233Z,8.53
2019-01-26T16:45:52.544Z,8.10
2019-01-26T16:48:20.921Z,7.73
2019-01-26T16:50:49.317Z,9.03
2019-01-26T16:53:19.352Z,6.87
2019-01-26T16:55:47.733Z,10.20
2019-01-26T16:58:16.130Z,8.67
2019-01-26T17:00:46.193Z,7.73
2019-01-26T17:03:16.208Z,9.83
2019-01-26T17:05:44.617Z,9.50
2019-01-26T17:08:13.052Z,8.70
2019-01-26T17:10:44.457Z,10.17
2019-01-26T17:13:15.612Z,14.33
2019-01-26T17:15:45.645Z,10.47
2019-01-26T17:18:16.410Z,10.43
2019-01-26T17:20:44.876Z,12.43
2019-01-26T17:23:17.886Z,10.03
2019-01-26T17:25:50.825Z,10.87
2019-01-26T17:28:19.213Z,11.67
2019-01-26T17:30:48.121Z,11.30
2019-01-26T17:33:22.272Z,11.10
2019-01-26T17:35:50.958Z,11.77
2019-01-26T17:38:19.346Z,10.23
2019-01-26T17:41:11.486Z,11.13
2019-01-26T17:43:42.773Z,11.73
2019-01-26T17:46:12.800Z,11.63
2019-01-26T17:48:41.194Z,9.83
2019-01-26T17:51:09.571Z,10.07
2019-01-26T17:53:42.173Z,11.13
2019-01-26T17:56:11.937Z,12.83
2019-01-26T17:58:41.142Z,13.57
2019-01-26T18:01:12.719Z,11.80
2019-01-26T18:03:44.355Z,12.60
2019-01-26T18:06:16.447Z,11.63
2019-01-26T18:08:44.954Z,11.20
2019-01-26T18:11:19.240Z,11.57
2019-01-26T18:13:47.689Z,11.43
2019-01-26T18:16:16.342Z,10.93
2019-01-26T18:18:44.740Z,12.00
2019-01-26T18:21:14.773Z,11.33
2019-01-26T18:23:46.106Z,10.63
2019-01-26T18:26:16.144Z,10.50
2019-01-26T18:28:44.530Z,9.87
2019-01-26T18:31:15.560Z,10.30
2019-01-26T18:33:45.668Z,9.27
2019-01-26T18:36:14.889Z,10.70
2019-01-26T18:38:46.240Z,9.60
2019-01-26T18:41:14.622Z,8.13
2019-01-26T18:43:43.001Z,8.43
2019-01-26T18:46:13.056Z,8.87
2019-01-26T18:48:42.981Z,8.03
2019-01-26T18:51:11.435Z,8.37
2019-01-26T18:53:42.614Z,8.47
2019-01-26T18:56:18.565Z,8.10
2019-01-26T18:58:46.972Z,7.87
2019-01-26T19:01:16.277Z,7.00
2019-01-26T19:03:50.505Z,10.17
2019-01-26T19:06:18.889Z,8.10
2019-01-26T19:08:47.277Z,8.20
2019-01-26T19:11:15.813Z,7.30
2019-01-26T19:13:44.192Z,8.53
2019-01-26T19:16:13.861Z,7.20
2019-01-26T19:18:42.435Z,7.93
2019-01-26T19:21:15.594Z,7.80
2019-01-26T19:23:52.478Z,7.40
2019-01-26T19:26:30.347Z,6.40
2019-01-26T19:29:07.334Z,7.80
2019-01-26T19:31:40.292Z,6.80
2019-01-26T19:34:08.752Z,8.33
2019-01-26T19:36:37.144Z,9.37
2019-01-26T19:39:07.825Z,8.63
2019-01-26T19:41:36.218Z,6.70
2019-01-26T19:44:05.254Z,8.90
2019-01-26T19:46:33.648Z,8.57
2019-01-26T19:49:02.066Z,8.60
2019-01-26T19:51:30.532Z,7.80
2019-01-26T19:53:58.927Z,6.80
2019-01-26T19:56:27.301Z,6.53
2019-01-26T19:58:55.686Z,6.43
2019-01-26T20:01:24.146Z,5.97
2019-01-26T20:03:52.529Z,6.73
2019-01-26T20:06:20.925Z,6.53
2019-01-26T20:08:49.561Z,6.10
2019-01-26T20:11:18.022Z,6.67
2019-01-26T20:13:46.401Z,7.03
2019-01-26T20:16:14.788Z,7.60
2019-01-26T20:18:43.182Z,5.47
2019-01-26T20:21:17.514Z,5.83
2019-01-26T20:23:41.754Z,5.20
2019-01-26T20:26:10.151Z,6.03
2019-01-26T20:28:38.530Z,5.90
2019-01-26T20:31:06.920Z,6.13
2019-01-26T20:33:35.315Z,5.43
2019-01-26T20:36:03.949Z,4.90
2019-01-26T20:38:32.430Z,5.57
2019-01-26T20:41:00.884Z,7.43
2019-01-26T20:43:29.265Z,6.60
2019-01-26T20:45:58.317Z,7.10
2019-01-26T20:48:27.393Z,5.30
2019-01-26T20:50:55.773Z,7.33
2019-01-26T20:53:24.152Z,7.37
2019-01-26T20:55:52.544Z,7.33
2019-01-26T20:58:22.576Z,6.23
2019-01-26T21:00:50.968Z,7.03
2019-01-26T21:03:19.357Z,7.67
2019-01-26T21:05:47.804Z,9.33
2019-01-26T21:08:16.645Z,6.63
2019-01-26T21:10:46.689Z,7.80
2019-01-26T21:13:16.818Z,8.37
2019-01-26T21:15:45.741Z,9.77
2019-01-26T21:18:18.478Z,8.50
2019-01-26T21:20:46.869Z,7.70
2019-01-26T21:23:25.766Z,6.40
2019-01-26T21:25:54.161Z,5.93
2019-01-26T21:28:42.141Z,6.90
2019-01-26T21:31:10.589Z,6.27
2019-01-26T21:33:40.626Z,6.43
2019-01-26T21:36:09.068Z,5.23
2019-01-26T21:38:42.813Z,5.43
2019-01-26T21:41:11.192Z,5.43
2019-01-26T21:43:43.473Z,7.10
2019-01-26T21:46:11.854Z,5.93
2019-01-26T21:48:44.886Z,6.17
2019-01-26T21:51:14.305Z,10.23
2019-01-26T21:53:51.096Z,6.77
2019-01-26T21:56:19.608Z,7.27
2019-01-26T21:58:50.897Z,6.40
2019-01-26T22:01:20.377Z,6.97
2019-01-26T22:03:50.637Z,6.27
2019-01-26T22:06:27.281Z,7.37
2019-01-26T22:08:55.652Z,7.70
2019-01-26T22:11:27.025Z,7.07
2019-01-26T22:13:58.107Z,8.80
2019-01-26T22:16:28.226Z,8.07
2019-01-26T22:19:02.363Z,7.83
2019-01-26T22:21:33.582Z,8.53
2019-01-26T22:24:05.340Z,8.37
2019-01-26T22:26:34.500Z,8.57
2019-01-26T22:29:04.285Z,9.33
2019-01-26T22:31:40.009Z,8.63
2019-01-26T22:34:11.129Z,8.00
2019-01-26T22:36:39.508Z,10.37
2019-01-26T22:39:14.841Z,10.10
2019-01-26T22:41:44.878Z,8.90
2019-01-26T22:44:13.249Z,8.70
2019-01-26T22:46:43.423Z,10.10
2019-01-26T22:49:26.057Z,9.03
2019-01-26T22:51:57.405Z,8.37
2019-01-26T22:54:25.791Z,9.37
2019-01-26T22:56:57.137Z,8.20
2019-01-26T22:59:27.181Z,7.37
2019-01-26T23:02:00.595Z,8.33
2019-01-26T23:04:34.929Z,7.63
2019-01-26T23:07:21.051Z,6.93
2019-01-26T23:10:13.401Z,7.33
2019-01-26T23:12:47.287Z,7.17
2019-01-26T23:15:35.280Z,9.07
2019-01-26T23:18:22.056Z,17.50
2019-01-26T23:21:01.299Z,11.03
2019-01-26T23:23:44.738Z,9.33
2019-01-26T23:26:28.069Z,9.57
2019-01-26T23:29:02.556Z,10.93
2019-01-26T23:31:30.934Z,9.97
2019-01-26T23:34:00.969Z,12.20
2019-01-26T23:36:29.361Z,11.47
2019-01-26T23:39:02.467Z,11.53
2019-01-26T23:41:30.986Z,13.47
2019-01-26T23:44:05.379Z,10.97
2019-01-26T23:46:33.782Z,7.80
2019-01-26T23:49:02.573Z,9.47
2019-01-26T23:51:33.624Z,9.13
2019-01-26T23:54:02.009Z,7.13
2019-01-26T23:56:36.500Z,6.83
2019-01-26T23:59:04.891Z,7.20
